Time;durP1;ratioP1;P1;durP2;ratioP2;P2;SDS_P1;SDS_P2;PMS_P1;PMS_P2;Temp;Humidity;BMP_temperature;BMP_pressure;BME280_temperature;BME280_humidity;BME280_pressure;Samples;Min_cycle;Max_cycle;Signal;HPM_P1;HPM_P2
2022/07/08 02:03:21;;;;;;;13.73;2.50;;;;;;;-145.18;100.00;46648.69;4919083;23;20050;-82
2022/07/08 02:05:47;;;;;;;11.00;2.13;;;;;;;-145.18;100.00;46642.81;5005673;28;20490;-82
2022/07/08 02:08:13;;;;;;;9.83;2.70;;;;;;;-145.18;100.00;46640.88;5008282;28;20041;-81
2022/07/08 02:13:22;;;;;;;10.83;2.60;;;;;;;-145.18;100.00;46640.88;4999333;28;20044;-83
2022/07/08 02:15:47;;;;;;;13.30;2.27;;;;;;;-145.18;100.00;46677.97;5009708;28;20042;-82
2022/07/08 02:18:13;;;;;;;7.63;2.40;;;;;;;-145.18;100.00;46642.81;5009448;28;20466;-83
2022/07/08 02:20:38;;;;;;;10.53;2.70;;;;;;;-145.18;100.00;46677.97;5009580;28;20476;-83
2022/07/08 02:23:03;;;;;;;5.67;1.90;;;;;;;-145.18;100.00;46638.91;5028608;28;20037;-80
2022/07/08 02:25:29;;;;;;;7.43;2.10;;;;;;;-145.18;100.00;46640.88;5021204;28;20124;-81
2022/07/08 02:27:54;;;;;;;10.03;2.30;;;;;;;-145.18;100.00;46640.88;5018943;28;20109;-81
2022/07/08 02:30:20;;;;;;;10.40;2.60;;;;;;;-145.18;100.00;46642.81;5033408;28;20077;-81
2022/07/08 02:32:46;;;;;;;10.87;2.70;;;;;;;-145.18;100.00;46638.91;5032818;28;20038;-81
2022/07/08 02:35:11;;;;;;;10.63;2.30;;;;;;;-145.18;100.00;46638.91;5033172;28;20037;-82
2022/07/08 02:37:36;;;;;;;10.07;2.57;;;;;;;-145.18;100.00;46640.88;5032382;28;20367;-82
2022/07/08 02:40:02;;;;;;;8.63;2.40;;;;;;;-145.18;100.00;46636.94;5032787;28;20100;-82
2022/07/08 02:42:29;;;;;;;8.17;2.40;;;;;;;-145.18;100.00;46640.88;5032603;28;20136;-83
2022/07/08 02:44:55;;;;;;;14.10;2.77;;;;;;;-145.18;100.00;46636.94;5032455;28;20038;-83
2022/07/08 02:47:20;;;;;;;10.57;2.63;;;;;;;-145.18;100.00;46660.41;5032760;28;20478;-82
2022/07/08 02:49:45;;;;;;;12.00;2.60;;;;;;;-145.18;100.00;46660.41;5032333;28;20137;-82
2022/07/08 02:52:11;;;;;;;12.47;2.17;;;;;;;-145.18;100.00;46660.41;5032283;28;20087;-83
2022/07/08 02:54:36;;;;;;;17.23;3.03;;;;;;;-145.18;100.00;46660.41;5014898;28;20124;-82
2022/07/08 02:57:02;;;;;;;14.80;2.40;;;;;;;-145.18;100.00;46636.94;5032029;28;20148;-82
2022/07/08 02:59:27;;;;;;;12.67;2.40;;;;;;;-145.18;100.00;46638.91;5032448;28;20041;-82
2022/07/08 03:01:52;;;;;;;6.20;1.87;;;;;;;-145.18;100.00;46660.41;5025454;28;20030;-82
2022/07/08 03:04:18;;;;;;;10.00;2.30;;;;;;;-145.18;100.00;46638.91;5012573;28;20041;-82
2022/07/08 03:06:43;;;;;;;10.27;2.60;;;;;;;-145.18;100.00;46676.03;5012449;28;20041;-82
2022/07/08 03:09:09;;;;;;;9.53;2.23;;;;;;;-145.18;100.00;46638.91;5012060;28;20132;-82
2022/07/08 03:11:34;;;;;;;9.83;2.30;;;;;;;-145.18;100.00;46638.91;5012551;28;20119;-81
2022/07/08 03:13:59;;;;;;;14.37;2.77;;;;;;;-145.18;100.00;46636.94;5012255;28;20491;-83
2022/07/08 03:16:25;;;;;;;10.27;2.53;;;;;;;-145.18;100.00;46660.41;5012466;28;20077;-82
2022/07/08 03:18:50;;;;;;;7.30;2.10;;;;;;;-145.18;100.00;46676.03;5000977;28;20045;-82
2022/07/08 03:21:16;;;;;;;11.60;2.00;;;;;;;-145.18;100.00;46636.94;5012612;28;20030;-81
2022/07/08 03:23:41;;;;;;;10.63;2.23;;;;;;;-145.18;100.00;46676.03;5012276;28;20029;-83
2022/07/08 03:26:06;;;;;;;10.03;2.50;;;;;;;-145.18;100.00;46660.41;5012293;28;20072;-82
2022/07/08 03:28:32;;;;;;;10.90;2.63;;;;;;;-145.18;100.00;46660.41;5011863;28;20173;-82
2022/07/08 03:30:57;;;;;;;7.97;2.43;;;;;;;-145.18;100.00;46636.94;5011733;28;20049;-82
2022/07/08 03:33:23;;;;;;;8.63;2.10;;;;;;;-145.18;100.00;46638.91;5012067;28;20085;-82
2022/07/08 03:35:48;;;;;;;6.03;2.30;;;;;;;-145.18;100.00;46644.78;5011606;28;20030;-82
2022/07/08 03:38:14;;;;;;;7.63;2.03;;;;;;;-145.18;100.00;46636.94;5011981;28;20523;-81
2022/07/08 03:43:23;;;;;;;12.03;2.43;;;;;;;-145.18;100.00;46640.88;4996464;28;20092;-80
2022/07/08 03:45:48;;;;;;;10.33;2.20;;;;;;;-145.18;100.00;46660.41;5012169;28;20471;-80
2022/07/08 03:48:14;;;;;;;11.40;2.37;;;;;;;-145.18;100.00;46660.41;5011803;28;20080;-81
2022/07/08 03:50:40;;;;;;;6.67;2.20;;;;;;;-145.18;100.00;46636.94;5011663;28;20045;-81
2022/07/08 03:53:05;;;;;;;6.93;1.73;;;;;;;-145.18;100.00;46636.94;5011625;28;20038;-80
2022/07/08 03:55:31;;;;;;;14.50;2.40;;;;;;;-145.18;100.00;46636.94;5012219;28;20407;-83
2022/07/08 03:57:57;;;;;;;13.53;2.70;;;;;;;-145.18;100.00;46660.41;5011550;28;20494;-81
2022/07/08 04:00:23;;;;;;;5.90;1.97;;;;;;;-145.18;100.00;46660.41;5011682;28;20029;-82
2022/07/08 04:02:49;;;;;;;7.70;2.13;;;;;;;-145.18;100.00;46660.41;5010732;28;20524;-81
2022/07/08 04:05:14;;;;;;;11.97;3.03;;;;;;;-145.18;100.00;46660.41;5011806;28;20033;-81
2022/07/08 04:07:40;;;;;;;11.63;2.23;;;;;;;-145.18;100.00;46636.94;5011095;28;20104;-81
2022/07/08 04:10:06;;;;;;;8.83;2.33;;;;;;;-145.18;100.00;46636.94;5011569;28;20041;-82
2022/07/08 04:12:32;;;;;;;9.53;2.77;;;;;;;-145.18;100.00;46635.00;5011017;28;20041;-81
2022/07/08 04:14:57;;;;;;;8.70;2.50;;;;;;;-145.18;100.00;46660.41;5011303;28;20085;-82
2022/07/08 04:17:22;;;;;;;12.83;2.57;;;;;;;-145.18;100.00;46635.00;5011206;28;20034;-80
2022/07/08 04:19:48;;;;;;;11.10;2.60;;;;;;;-145.18;100.00;46636.94;5011000;28;20042;-79
2022/07/08 04:22:13;;;;;;;7.87;2.20;;;;;;;-145.18;100.00;46633.06;5011214;28;20117;-81
2022/07/08 04:24:38;;;;;;;9.90;2.50;;;;;;;-145.18;100.00;46660.41;5010817;28;20494;-82
2022/07/08 04:27:04;;;;;;;10.33;2.33;;;;;;;-145.18;100.00;46633.06;5011370;28;20486;-80
2022/07/08 04:29:29;;;;;;;10.33;2.63;;;;;;;-145.18;100.00;46633.06;5010679;28;20034;-81
2022/07/08 04:31:54;;;;;;;8.73;2.33;;;;;;;-145.18;100.00;46660.41;5011083;28;20056;-81
2022/07/08 04:34:20;;;;;;;9.57;2.83;;;;;;;-145.18;100.00;46660.41;5010689;28;20117;-81
2022/07/08 04:36:45;;;;;;;8.43;3.33;;;;;;;-145.18;100.00;46633.06;5011291;28;20061;-81
2022/07/08 04:39:10;;;;;;;8.43;2.50;;;;;;;-145.18;100.00;46660.41;5010563;28;20042;-80
2022/07/08 04:41:37;;;;;;;10.60;2.23;;;;;;;-145.18;100.00;46660.41;5010530;28;20105;-81
2022/07/08 04:44:03;;;;;;;10.30;2.50;;;;;;;-145.18;100.00;46660.41;5010502;28;20026;-81
2022/07/08 04:46:28;;;;;;;13.33;2.60;;;;;;;-145.18;100.00;46660.41;5009658;28;20060;-82
2022/07/08 04:48:54;;;;;;;9.60;2.70;;;;;;;-145.18;100.00;46660.41;5006964;28;20557;-81
2022/07/08 04:51:19;;;;;;;14.00;2.43;;;;;;;-145.18;100.00;46660.41;5008079;28;20085;-81
2022/07/08 04:53:44;;;;;;;9.90;2.60;;;;;;;-145.18;100.00;46660.41;5012913;28;20037;-82
2022/07/08 04:56:10;;;;;;;11.10;2.50;;;;;;;-145.18;100.00;46660.41;5009404;28;20034;-81
2022/07/08 04:58:36;;;;;;;14.13;3.77;;;;;;;-145.18;100.00;46660.41;5008550;28;20026;-81
2022/07/08 05:01:02;;;;;;;10.83;2.63;;;;;;;-145.18;100.00;46660.41;5006787;28;20553;-79
2022/07/08 05:03:27;;;;;;;8.90;2.90;;;;;;;-145.18;100.00;46625.22;4995185;28;20047;-80
2022/07/08 05:05:53;;;;;;;8.83;2.53;;;;;;;-145.18;100.00;46660.41;5010044;28;20029;-80
2022/07/08 05:08:18;;;;;;;12.27;3.00;;;;;;;-145.18;100.00;46660.41;5011710;28;20525;-80
2022/07/08 05:10:43;;;;;;;6.17;2.50;;;;;;;-145.18;100.00;46623.28;5009824;28;20030;-82
2022/07/08 05:13:09;;;;;;;17.10;3.37;;;;;;;-145.18;100.00;46621.31;5009915;28;20080;-81
2022/07/08 05:15:35;;;;;;;13.33;3.20;;;;;;;-145.18;100.00;46623.28;5009639;28;20038;-81
2022/07/08 05:18:00;;;;;;;16.77;3.30;;;;;;;-145.18;100.00;46623.28;5010111;28;20030;-81
2022/07/08 05:20:25;;;;;;;9.97;3.03;;;;;;;-145.18;100.00;46619.38;5009635;28;20084;-80
2022/07/08 05:22:51;;;;;;;16.60;3.90;;;;;;;-145.18;100.00;46619.38;5009293;28;20049;-80
2022/07/08 05:25:17;;;;;;;11.33;3.50;;;;;;;-145.18;100.00;46619.38;5009928;28;20018;-82
2022/07/08 05:27:42;;;;;;;11.23;2.80;;;;;;;-145.18;100.00;46621.31;4993948;28;20442;-80
2022/07/08 05:30:10;;;;;;;13.30;3.10;;;;;;;-145.18;100.00;46617.41;5009673;28;20447;-80
2022/07/08 05:32:36;;;;;;;9.23;2.83;;;;;;;-145.18;100.00;46617.41;5003817;28;20117;-80
2022/07/08 05:35:03;;;;;;;13.60;2.80;;;;;;;-145.18;100.00;46623.28;5009689;28;20097;-81
2022/07/08 05:37:28;;;;;;;10.77;2.57;;;;;;;-145.18;100.00;46615.47;5009663;28;20034;-81
2022/07/08 05:39:54;;;;;;;12.03;3.07;;;;;;;-145.18;100.00;46617.41;4992424;28;20506;-81
2022/07/08 05:42:19;;;;;;;13.23;4.00;;;;;;;-145.18;100.00;46619.38;5009588;28;20041;-81
2022/07/08 05:44:44;;;;;;;13.00;3.00;;;;;;;-145.18;100.00;46621.31;4993171;28;20023;-81
2022/07/08 05:47:10;;;;;;;12.47;2.80;;;;;;;-145.18;100.00;46623.28;5009340;28;20034;-81
2022/07/08 05:49:37;;;;;;;9.20;2.00;;;;;;;-145.18;100.00;46625.22;5009245;28;20164;-81
2022/07/08 05:52:06;;;;;;;11.87;2.57;;;;;;;-145.18;100.00;46627.19;4999179;28;20390;-81
2022/07/08 05:54:32;;;;;;;18.13;2.97;;;;;;;-145.18;100.00;46623.28;4998873;28;20085;-81
2022/07/08 05:56:58;;;;;;;11.97;2.17;;;;;;;-145.18;100.00;46629.13;5003057;28;20521;-80
2022/07/08 05:59:23;;;;;;;17.63;3.70;;;;;;;-145.18;100.00;46633.06;5000421;28;20081;-80
2022/07/08 06:01:49;;;;;;;11.03;1.63;;;;;;;-145.18;100.00;46633.06;5013407;28;20766;-81
2022/07/08 06:04:14;;;;;;;15.80;2.40;;;;;;;-145.18;100.00;46633.06;5013123;28;20466;-82
2022/07/08 06:06:39;;;;;;;11.77;2.57;;;;;;;-145.18;100.00;46635.00;5013073;28;20114;-80
2022/07/08 06:09:05;;;;;;;11.87;2.60;;;;;;;-145.18;100.00;46638.91;5012875;28;20033;-81
2022/07/08 06:11:30;;;;;;;18.03;2.17;;;;;;;-145.18;100.00;46633.06;5013064;28;20038;-81
2022/07/08 06:13:56;;;;;;;16.27;2.57;;;;;;;-145.18;100.00;46636.94;5012231;28;20034;-81
2022/07/08 06:16:21;;;;;;;15.73;1.97;;;;;;;-145.18;100.00;46636.94;5013771;28;20406;-80
2022/07/08 06:18:47;;;;;;;5.53;1.70;;;;;;;-145.18;100.00;46642.81;5012644;28;20061;-81
2022/07/08 06:21:12;;;;;;;11.90;1.77;;;;;;;-145.18;100.00;46640.88;5012875;28;20029;-80
2022/07/08 06:23:38;;;;;;;14.53;2.87;;;;;;;-145.18;100.00;46640.88;5012730;28;20109;-80
2022/07/08 06:26:03;;;;;;;16.50;2.00;;;;;;;-145.18;100.00;46640.88;5012483;28;20049;-80
2022/07/08 06:28:28;;;;;;;16.10;2.50;;;;;;;-145.18;100.00;46640.88;5011751;28;20125;-80
2022/07/08 06:30:54;;;;;;;13.57;1.97;;;;;;;-145.18;100.00;46644.78;5012551;28;20379;-80
2022/07/08 06:33:19;;;;;;;11.33;1.93;;;;;;;-145.18;100.00;46644.78;5012370;28;20046;-80
2022/07/08 06:35:45;;;;;;;18.83;2.30;;;;;;;-145.18;100.00;46642.81;5011039;28;20057;-80
2022/07/08 06:38:10;;;;;;;10.03;2.23;;;;;;;-145.18;100.00;46642.81;5009797;28;20056;-79
2022/07/08 06:40:35;;;;;;;14.57;2.27;;;;;;;-145.18;100.00;46642.81;5012372;28;20037;-81
2022/07/08 06:43:01;;;;;;;11.13;2.20;;;;;;;-145.18;100.00;46644.78;5004770;28;20038;-79
2022/07/08 06:45:30;;;;;;;14.90;2.40;;;;;;;-145.18;100.00;46644.78;5000391;28;20046;-79
2022/07/08 06:47:55;;;;;;;12.40;2.10;;;;;;;-145.18;100.00;46654.53;5011440;28;20137;-80
2022/07/08 06:50:21;;;;;;;11.37;2.70;;;;;;;-145.18;100.00;46650.63;5012409;28;20038;-79
2022/07/08 06:52:46;;;;;;;12.37;2.30;;;;;;;-145.18;100.00;46648.69;5011807;28;20109;-79
2022/07/08 06:55:11;;;;;;;14.10;2.40;;;;;;;-145.18;100.00;46648.69;5011793;28;20026;-80
2022/07/08 06:57:37;;;;;;;9.70;1.60;;;;;;;-145.18;100.00;46650.63;4996578;28;20073;-79
2022/07/08 07:00:04;;;;;;;11.50;2.20;;;;;;;-145.18;100.00;46646.72;5014319;28;20530;-80
2022/07/08 07:02:29;;;;;;;9.97;1.90;;;;;;;-145.18;100.00;46648.69;5011953;28;20053;-80
2022/07/08 07:04:55;;;;;;;16.70;2.50;;;;;;;-145.18;100.00;46650.63;5011628;28;20049;-79
2022/07/08 07:07:20;;;;;;;10.53;2.27;;;;;;;-145.18;100.00;46644.78;5012368;28;20113;-79
2022/07/08 07:09:45;;;;;;;11.93;2.30;;;;;;;-145.18;100.00;46644.78;5010636;28;20058;-79
2022/07/08 07:12:11;;;;;;;16.90;2.00;;;;;;;-145.18;100.00;46648.69;5012207;28;20033;-80
2022/07/08 07:14:36;;;;;;;14.87;2.23;;;;;;;-145.18;100.00;46652.59;5011771;28;20034;-80
2022/07/08 07:17:02;;;;;;;16.70;2.23;;;;;;;-145.18;100.00;46650.63;5011685;28;20572;-79
2022/07/08 07:19:28;;;;;;;14.93;2.93;;;;;;;-145.18;100.00;46648.69;5011438;28;20537;-80
2022/07/08 07:21:53;;;;;;;11.17;2.10;;;;;;;-145.18;100.00;46652.59;5000511;28;20031;-80
2022/07/08 07:24:19;;;;;;;11.17;2.03;;;;;;;-145.18;100.00;46650.63;5009220;28;20026;-79
2022/07/08 07:26:44;;;;;;;21.13;2.80;;;;;;;-145.18;100.00;46652.59;5011768;28;20045;-79
2022/07/08 07:29:10;;;;;;;11.93;2.97;;;;;;;-145.18;100.00;46650.63;5011389;28;20030;-79
2022/07/08 07:31:36;;;;;;;13.20;2.73;;;;;;;-145.18;100.00;46650.63;5011475;28;20037;-81
2022/07/08 07:34:02;;;;;;;8.97;2.17;;;;;;;-145.18;100.00;46656.50;5011708;28;20610;-79
2022/07/08 07:36:27;;;;;;;18.27;3.07;;;;;;;-145.18;100.00;46650.63;5012064;28;20034;-80
2022/07/08 07:38:53;;;;;;;12.13;3.60;;;;;;;-145.18;100.00;46654.53;5011304;28;20076;-80
2022/07/08 07:41:19;;;;;;;11.97;1.73;;;;;;;-145.18;100.00;46658.44;5012187;28;20034;-80
2022/07/08 07:43:44;;;;;;;14.03;2.50;;;;;;;-145.18;100.00;46664.31;5011515;28;20097;-79
2022/07/08 07:46:10;;;;;;;8.47;2.00;;;;;;;-145.18;100.00;46658.44;5011662;28;20561;-80
2022/07/08 07:48:35;;;;;;;14.67;2.37;;;;;;;-145.18;100.00;46662.34;5011358;28;20041;-80
2022/07/08 07:51:01;;;;;;;9.77;2.10;;;;;;;-145.18;100.00;46662.34;5009961;28;20065;-79
2022/07/08 07:53:27;;;;;;;9.50;1.70;;;;;;;-145.18;100.00;46664.31;5008604;28;20038;-80
2022/07/08 07:55:53;;;;;;;11.97;2.00;;;;;;;-145.18;100.00;46662.34;5011594;28;20399;-79
2022/07/08 07:58:19;;;;;;;17.47;2.63;;;;;;;-145.18;100.00;46666.25;5011011;28;20219;-79
2022/07/08 08:00:45;;;;;;;10.27;1.83;;;;;;;-145.18;100.00;46664.31;5011580;28;20537;-80
2022/07/08 08:03:10;;;;;;;12.40;2.43;;;;;;;-145.18;100.00;46660.41;5010691;28;20141;-79
2022/07/08 08:05:36;;;;;;;11.80;2.10;;;;;;;-145.18;100.00;46660.41;5011490;28;20041;-80
2022/07/08 08:08:01;;;;;;;9.37;1.83;;;;;;;-145.18;100.00;46666.25;5011226;28;20034;-79
2022/07/08 08:10:27;;;;;;;11.30;2.00;;;;;;;-145.18;100.00;46666.25;5010755;28;20743;-79
2022/07/08 08:12:52;;;;;;;12.90;1.83;;;;;;;-145.18;100.00;46666.25;4997153;28;20026;-79
2022/07/08 08:15:17;;;;;;;10.93;1.83;;;;;;;-145.18;100.00;46666.25;5011073;28;20116;-80
2022/07/08 08:17:43;;;;;;;10.67;1.90;;;;;;;-145.18;100.00;46666.25;5010121;28;20041;-79
2022/07/08 08:20:12;;;;;;;10.77;2.23;;;;;;;-145.18;100.00;46656.50;5011415;28;20030;-79
2022/07/08 08:22:38;;;;;;;10.67;1.97;;;;;;;-145.18;100.00;46660.41;5010855;28;20459;-79
2022/07/08 08:25:04;;;;;;;9.97;1.80;;;;;;;-145.18;100.00;46650.63;5010571;28;20026;-79
2022/07/08 08:27:29;;;;;;;10.90;2.63;;;;;;;-145.18;100.00;46638.91;5011246;28;20044;-79
2022/07/08 08:29:55;;;;;;;8.33;2.53;;;;;;;-145.18;100.00;46650.63;5010589;28;20034;-80
2022/07/08 08:32:21;;;;;;;13.67;2.33;;;;;;;-145.18;100.00;46578.34;5011080;28;20380;-79
2022/07/08 08:34:46;;;;;;;11.47;2.10;;;;;;;-145.18;100.00;46586.16;5010169;28;20018;-79
2022/07/08 08:37:12;;;;;;;12.93;2.47;;;;;;;-145.18;100.00;46629.13;5010092;28;20464;-79
2022/07/08 08:39:39;;;;;;;9.97;1.80;;;;;;;-145.18;100.00;46545.16;5009798;28;20026;-80
2022/07/08 08:42:06;;;;;;;9.97;2.13;;;;;;;-145.18;100.00;46535.38;5010363;28;20046;-79
2022/07/08 08:44:31;;;;;;;7.00;1.47;;;;;;;-145.18;100.00;46543.19;5009711;28;20025;-79
2022/07/08 08:46:58;;;;;;;8.63;1.60;;;;;;;-145.18;100.00;46545.16;5008761;28;20490;-79
2022/07/08 08:49:24;;;;;;;13.27;1.90;;;;;;;-145.18;100.00;46554.91;5002774;28;20618;-79
2022/07/08 08:51:50;;;;;;;8.70;1.77;;;;;;;-145.18;100.00;46552.97;5005033;28;20478;-80
2022/07/08 08:54:20;;;;;;;7.90;1.63;;;;;;;-145.18;100.00;46547.09;5009789;28;20041;-79
2022/07/08 08:56:46;;;;;;;10.00;1.90;;;;;;;-145.18;100.00;46545.16;5010379;28;20378;-79
2022/07/08 08:59:14;;;;;;;10.17;2.07;;;;;;;-145.18;100.00;46551.00;5009769;28;20601;-79
2022/07/08 09:01:40;;;;;;;9.10;1.93;;;;;;;-145.18;100.00;46547.09;5007378;28;20034;-79
2022/07/08 09:04:10;;;;;;;11.67;1.90;;;;;;;-145.18;100.00;46549.06;5001316;28;20076;-80
2022/07/08 09:06:39;;;;;;;8.87;1.70;;;;;;;-145.18;100.00;46556.88;5010382;28;20041;-82
2022/07/08 09:09:05;;;;;;;11.50;2.23;;;;;;;-145.18;100.00;46560.78;5009982;28;20030;-80
2022/07/08 09:11:32;;;;;;;11.57;1.97;;;;;;;-145.18;100.00;46547.09;5017850;28;20109;-80
2022/07/08 09:14:17;;;;;;;17.40;2.27;;;;;;;-145.18;100.00;46545.16;5010090;28;20041;-79
2022/07/08 09:17:11;;;;;;;9.60;1.83;;;;;;;-145.18;100.00;46551.00;5010365;28;20375;-80
2022/07/08 09:19:37;;;;;;;9.57;1.80;;;;;;;-145.18;100.00;46547.09;5007496;28;20042;-80
2022/07/08 09:22:05;;;;;;;7.37;1.80;;;;;;;-145.18;100.00;46551.00;5010973;28;20038;-80
2022/07/08 09:24:30;;;;;;;7.20;1.70;;;;;;;-145.18;100.00;46558.81;4993010;28;20553;-80
2022/07/08 09:26:56;;;;;;;10.90;1.80;;;;;;;-145.18;100.00;46551.00;5009787;28;20069;-79
2022/07/08 09:29:22;;;;;;;6.70;1.60;;;;;;;-145.18;100.00;46547.09;4993385;28;20046;-80
2022/07/08 09:31:47;;;;;;;8.73;2.27;;;;;;;-145.18;100.00;46556.88;5009247;28;20029;-79
2022/07/08 09:34:16;;;;;;;10.23;1.77;;;;;;;-145.18;100.00;46543.19;5008557;28;20041;-80
2022/07/08 09:36:49;;;;;;;12.67;1.93;;;;;;;-145.18;100.00;46541.25;4996280;28;20026;-80
2022/07/08 09:39:27;;;;;;;7.00;1.97;;;;;;;-145.18;100.00;46537.34;5002331;28;20053;-81
2022/07/08 09:41:53;;;;;;;9.20;2.10;;;;;;;-145.18;100.00;46545.16;5009443;28;20053;-79
2022/07/08 09:44:22;;;;;;;7.90;1.90;;;;;;;-145.18;100.00;46551.00;5010096;28;20459;-79
2022/07/08 09:46:49;;;;;;;8.57;2.27;;;;;;;-145.18;100.00;46552.97;5008547;28;20057;-79
2022/07/08 09:49:31;;;;;;;13.13;2.80;;;;;;;-145.18;100.00;46551.00;5010106;28;20505;-80
2022/07/08 09:51:57;;;;;;;5.53;1.40;;;;;;;-145.18;100.00;46580.31;5009477;28;20089;-80
2022/07/08 09:54:24;;;;;;;9.73;2.00;;;;;;;-145.18;100.00;46560.78;5009193;28;20034;-79
2022/07/08 09:56:59;;;;;;;5.73;2.00;;;;;;;-145.18;100.00;46588.13;5009037;28;20037;-80
2022/07/08 09:59:25;;;;;;;8.98;2.15;;;;;;;-145.18;100.00;46605.69;5009061;28;20406;-79
2022/07/08 10:01:52;;;;;;;12.23;1.80;;;;;;;-145.18;100.00;46576.41;5011873;28;20018;-79
2022/07/08 10:04:17;;;;;;;6.60;1.70;;;;;;;-145.18;100.00;46547.09;5008756;28;20089;-80
2022/07/08 10:06:43;;;;;;;6.67;1.87;;;;;;;-145.18;100.00;46568.59;5012799;28;20030;-80
2022/07/08 10:09:09;;;;;;;10.37;1.87;;;;;;;-145.18;100.00;46547.09;5008806;28;20034;-80
2022/07/08 10:11:36;;;;;;;8.80;2.80;;;;;;;-145.18;100.00;46592.03;5009297;28;20383;-80
2022/07/08 10:14:02;;;;;;;8.60;2.03;;;;;;;-145.18;100.00;46574.44;5008573;28;20566;-80
2022/07/08 10:16:29;;;;;;;7.70;2.27;;;;;;;-145.18;100.00;46582.25;5009303;28;20038;-79
2022/07/08 10:18:56;;;;;;;6.93;2.20;;;;;;;-145.18;100.00;46564.69;5008262;28;20501;-79
2022/07/08 10:21:25;;;;;;;9.67;2.10;;;;;;;-145.18;100.00;46562.72;5008629;28;20030;-79
2022/07/08 10:23:52;;;;;;;9.70;2.07;;;;;;;-145.18;100.00;46586.16;5008397;28;20041;-79
2022/07/08 10:26:28;;;;;;;5.60;1.93;;;;;;;-145.18;100.00;46552.97;5008996;28;20128;-79
2022/07/08 10:29:05;;;;;;;13.20;2.53;;;;;;;-145.18;100.00;46560.78;5008765;28;20033;-80
2022/07/08 10:31:46;;;;;;;11.17;2.13;;;;;;;-145.18;100.00;46551.00;5008383;28;20517;-79
2022/07/08 10:34:13;;;;;;;7.83;1.80;;;;;;;-145.18;100.00;46537.34;5008841;28;20491;-79
2022/07/08 10:36:49;;;;;;;9.60;2.30;;;;;;;-145.18;100.00;46554.91;5009153;28;20053;-78
2022/07/08 10:39:36;;;;;;;7.10;2.27;;;;;;;-145.18;100.00;46586.16;5008780;28;20653;-78
2022/07/08 10:42:06;;;;;;;7.97;2.90;;;;;;;-145.18;100.00;46572.50;5009143;28;20177;-78
2022/07/08 10:44:46;;;;;;;8.97;2.60;;;;;;;-145.18;100.00;46574.44;5009423;28;20450;-78
2022/07/08 10:47:29;;;;;;;7.00;2.20;;;;;;;-145.18;100.00;46539.28;5007701;28;20109;-79
2022/07/08 10:50:06;;;;;;;8.17;2.33;;;;;;;-145.18;100.00;46666.25;4993593;28;20034;-78
2022/07/08 10:52:38;;;;;;;11.77;2.60;;;;;;;-145.18;100.00;46556.88;4998870;28;20027;-79
2022/07/08 10:55:15;;;;;;;6.03;2.20;;;;;;;-145.18;100.00;46558.81;5009372;28;20026;-78
2022/07/08 10:57:57;;;;;;;7.17;2.40;;;;;;;-145.18;100.00;46586.16;4994404;28;20038;-78
2022/07/08 11:00:22;;;;;;;7.17;2.50;;;;;;;-145.18;100.00;46539.28;5015628;28;20125;-78
2022/07/08 11:02:49;;;;;;;6.03;1.70;;;;;;;-145.18;100.00;46613.50;5011635;28;20221;-78
2022/07/08 11:05:35;;;;;;;6.33;1.90;;;;;;;-145.18;100.00;46566.63;5011420;28;20640;-78
2022/07/08 11:08:18;;;;;;;9.70;2.22;;;;;;;-145.18;100.00;46763.91;4992415;28;20419;-78
2022/07/08 11:10:44;;;;;;;14.23;4.30;;;;;;;-145.18;100.00;46961.22;4998159;28;20507;-77
2022/07/08 11:13:10;;;;;;;9.40;2.20;;;;;;;-145.18;100.00;47121.41;5012116;28;20080;-77
2022/07/08 11:15:36;;;;;;;6.27;3.23;;;;;;;-145.18;100.00;47068.66;5010726;28;20391;-78
2022/07/08 11:18:02;;;;;;;6.93;2.37;;;;;;;-145.18;100.00;47037.41;5012096;28;20553;-77
2022/07/08 11:20:30;;;;;;;6.23;2.20;;;;;;;-145.18;100.00;47074.53;5010452;28;20053;-77
2022/07/08 11:22:56;;;;;;;7.53;2.20;;;;;;;-145.18;100.00;47078.44;5011267;28;20030;-77
2022/07/08 11:25:22;;;;;;;5.77;2.17;;;;;;;-145.18;100.00;47066.72;5011094;28;20037;-77
2022/07/08 11:27:47;;;;;;;11.13;2.27;;;;;;;-145.18;100.00;47121.41;5011221;28;20030;-77
2022/07/08 11:30:15;;;;;;;4.67;1.77;;;;;;;-145.18;100.00;47088.19;5011263;28;20045;-77
2022/07/08 11:32:42;;;;;;;5.87;2.50;;;;;;;-145.18;100.00;47090.16;5011174;28;20096;-76
2022/07/08 11:35:08;;;;;;;6.00;1.80;;;;;;;-145.18;100.00;47088.19;5010715;28;20025;-77
2022/07/08 11:37:44;;;;;;;8.00;2.33;;;;;;;-145.18;100.00;47129.22;5011297;28;20033;-77
2022/07/08 11:40:10;;;;;;;10.23;3.10;;;;;;;-145.18;100.00;47062.81;4991659;28;20034;-76
2022/07/08 11:42:37;;;;;;;9.00;2.17;;;;;;;-145.18;100.00;47039.34;4996782;28;20034;-77
2022/07/08 11:45:04;;;;;;;14.77;2.60;;;;;;;-145.18;100.00;47062.81;5009818;28;20396;-76
2022/07/08 11:47:30;;;;;;;8.63;2.50;;;;;;;-145.18;100.00;47045.22;5011102;28;20030;-76
2022/07/08 11:49:56;;;;;;;9.23;2.40;;;;;;;-145.18;100.00;47039.34;5010129;28;20429;-77
2022/07/08 11:52:21;;;;;;;8.73;2.53;;;;;;;-145.18;100.00;47039.34;5010800;28;20026;-76
2022/07/08 11:54:48;;;;;;;10.50;2.60;;;;;;;-145.18;100.00;47037.41;5010502;28;20026;-76
2022/07/08 11:57:15;;;;;;;8.43;2.30;;;;;;;-145.18;100.00;46996.38;5010717;28;20040;-76
2022/07/08 11:59:44;;;;;;;5.50;1.70;;;;;;;-145.18;100.00;46988.56;5009950;28;20391;-76
2022/07/08 12:02:10;;;;;;;5.72;1.67;;;;;;;-145.18;100.00;47043.28;5010615;28;20025;-76
2022/07/08 12:04:36;;;;;;;5.23;1.80;;;;;;;-145.18;100.00;47012.00;5010255;28;20061;-75
2022/07/08 12:07:02;;;;;;;4.80;1.97;;;;;;;-145.18;100.00;47008.09;5012698;28;20582;-77
2022/07/08 12:09:29;;;;;;;6.57;2.67;;;;;;;-145.18;100.00;46984.66;5009488;28;20026;-76
2022/07/08 12:11:57;;;;;;;4.88;1.90;;;;;;;-145.18;100.00;46978.81;5010638;28;20042;-76
2022/07/08 12:14:24;;;;;;;5.95;1.98;;;;;;;-145.18;100.00;47000.28;5010260;28;20093;-76
2022/07/08 12:16:51;;;;;;;5.13;2.03;;;;;;;-145.18;100.00;46996.38;5010494;28;20148;-76
2022/07/08 12:19:30;;;;;;;11.00;1.80;;;;;;;-145.18;100.00;46988.56;5010150;28;20034;-75
2022/07/08 12:22:04;;;;;;;5.70;1.50;;;;;;;-145.18;100.00;46992.47;5009897;28;20048;-75
2022/07/08 12:24:36;;;;;;;7.10;1.98;;;;;;;-145.18;100.00;47012.00;5010349;28;20038;-75
2022/07/08 12:27:04;;;;;;;6.20;1.80;;;;;;;-145.18;100.00;46992.47;5009496;28;20121;-75
2022/07/08 12:29:38;;;;;;;7.45;2.15;;;;;;;-145.18;100.00;46982.72;5008878;28;20038;-75
2022/07/08 12:32:05;;;;;;;6.35;1.92;;;;;;;-145.18;100.00;47015.91;5010057;28;20043;-75
2022/07/08 12:34:30;;;;;;;3.87;1.80;;;;;;;-145.18;100.00;46976.84;5009924;28;20025;-75
2022/07/08 12:37:21;;;;;;;11.55;1.92;;;;;;;-145.18;100.00;47021.78;5009724;28;20510;-75
2022/07/08 12:39:47;;;;;;;5.22;1.65;;;;;;;-145.18;100.00;46988.56;5007373;28;20029;-75
2022/07/08 12:42:13;;;;;;;4.35;1.50;;;;;;;-145.18;100.00;47035.44;5010132;28;20041;-75
2022/07/08 12:44:40;;;;;;;6.17;1.70;;;;;;;-145.18;100.00;46990.53;5009705;28;20030;-75
2022/07/08 12:47:07;;;;;;;3.97;1.70;;;;;;;-145.18;100.00;46990.53;5010119;28;20670;-75
2022/07/08 12:49:34;;;;;;;7.47;1.63;;;;;;;-145.18;100.00;46978.81;5009860;28;20092;-74
2022/07/08 12:52:01;;;;;;;7.03;1.95;;;;;;;-145.18;100.00;46969.03;5009997;28;20034;-74
2022/07/08 12:54:27;;;;;;;5.70;1.95;;;;;;;-145.18;100.00;46984.66;5010000;28;20117;-75
2022/07/08 12:56:55;;;;;;;5.07;1.92;;;;;;;-145.18;100.00;46984.66;5009054;28;20030;-74
2022/07/08 12:59:21;;;;;;;7.13;2.00;;;;;;;-145.18;100.00;46986.63;5003103;28;20026;-75
2022/07/08 13:01:46;;;;;;;5.63;2.03;;;;;;;-145.18;100.00;46984.66;5003037;28;20034;-74
2022/07/08 13:04:12;;;;;;;6.45;1.70;;;;;;;-145.18;100.00;46996.38;5009127;28;20049;-74
2022/07/08 13:06:38;;;;;;;6.63;2.00;;;;;;;-145.18;100.00;46992.47;5009812;28;20025;-75
2022/07/08 13:09:04;;;;;;;6.03;1.67;;;;;;;-145.18;100.00;46990.53;5008917;28;20045;-74
2022/07/08 13:11:30;;;;;;;5.35;1.85;;;;;;;-145.18;100.00;46972.94;5009914;28;20486;-74